Anshun, Guizhou

10:09 AM CST on May 28, 2015 (GMT +0800)
Guiyang | | Change Station
CLOSE
Current Station
Airport
Location: Guiyang,
Elevation: 3734 ft
Nearby Weather Stations

Elev 3734 ft 26.54 °N, 106.80 °E | Updated 9 minutes ago

Mostly Cloudy
Mostly Cloudy
84 °F
Feels Like 90 °F
N
13
Wind Variable Wind from SSW

Today
High -- | Low -- °F
--% Chance of Precip.
Yesterday
High -- | Low -- °F
Precip. -- in
6:04 AM 7:42 PM
Waxing Gibbous, 72% visible
Pressure 29.71 in
Visibility 6.2 miles
Clouds Mostly Cloudy 2600 ft
Heat Index 90 °F
Dew Point 72 °F
Humidity 66%
Rainfall 0.00 in
Snow Depth Not available.
UV 4 out of 12
Pollen Not available.
Air Quality Not available.
Flu Activity Not available.
METAR ZUGY 280200Z 20006MPS 160V230 9999 BKN026 29/22 Q1006 NOSIG

More Conditions Fewer Conditions

Pressure 29.71 in
Visibility 6.2 miles
Clouds Mostly Cloudy 2600 ft
Heat Index 90 °F
Dew Point 72 °F
Humidity 66%
Rainfall 0.00 in
Snow Depth Not available.
UV 4 out of 12
Pollen Not available.
Air Quality Not available.
Flu Activity Not available.
METAR ZUGY 280200Z 20006MPS 160V230 9999 BKN026 29/22 Q1006 NOSIG

More Conditions Fewer Conditions

10-Day Weather Forecast

Almanac

Astronomy

May. 28, 2015 Rise Set
Actual Time
Civil Twilight
Nautical Twilight
Astronomical Twilight
Moon
Length of Visible Light
Length of Day
Tomorrow will be .
, % of the Moon is Illuminated

Today's Extremes

Country Highs Country Lows

Community

WunderPhotos

Upload Photos

1,824,857 photos uploaded!

WunderBlogs® & News

Nearby

Air Quality

  Air Quality AQ Index Pollutant
Not available.

Snow Depth

Station Depth Elevation

Earthquake Activity

City Distance Mag. Time & Date
Minimum magnitude displayed is 2.5.

Coastal Water Temperatures

Place Temperature

Stations

Nearby Weather Stations

Station Location Temp. Windchill Dew Point Humidity Wind Precip. Elev Updated Type